createdAt,value
2018-11-03T00:00:00.735Z,7.16
2018-11-03T00:01:00.721Z,7.18
2018-11-03T00:02:00.697Z,7.13
2018-11-03T00:03:00.704Z,7.18
2018-11-03T00:04:00.656Z,7.03
2018-11-03T00:05:00.635Z,6.97
2018-11-03T00:06:00.612Z,7.04
2018-11-03T00:07:00.592Z,7.03
2018-11-03T00:08:00.580Z,6.97
2018-11-03T00:09:00.557Z,7.01
2018-11-03T00:10:00.531Z,7.03
2018-11-03T00:11:00.513Z,6.85
2018-11-03T00:12:00.497Z,6.88
2018-11-03T00:13:00.467Z,6.79
2018-11-03T00:14:00.455Z,6.71
2018-11-03T00:15:00.426Z,6.67
2018-11-03T00:16:00.413Z,6.65
2018-11-03T00:17:00.394Z,6.74
2018-11-03T00:18:00.364Z,6.79
2018-11-03T00:19:00.346Z,6.70
2018-11-03T00:20:00.323Z,6.74
2018-11-03T00:21:00.305Z,6.74
2018-11-03T00:22:00.281Z,6.70
2018-11-03T00:23:00.259Z,6.63
2018-11-03T00:24:00.240Z,6.56
2018-11-03T00:25:00.221Z,6.64
2018-11-03T00:26:00.203Z,6.56
2018-11-03T00:27:00.191Z,6.64
2018-11-03T00:28:00.179Z,6.64
2018-11-03T00:29:00.136Z,6.61
2018-11-03T00:30:00.119Z,6.65
2018-11-03T00:31:00.095Z,6.67
2018-11-03T00:32:00.078Z,6.67
2018-11-03T00:33:00.057Z,6.60
2018-11-03T00:34:00.034Z,6.55
2018-11-03T00:35:00.018Z,6.57
2018-11-03T00:35:59.990Z,6.53
2018-11-03T00:36:59.971Z,6.34
2018-11-03T00:37:59.953Z,6.25
2018-11-03T00:38:59.931Z,6.12
2018-11-03T00:39:59.909Z,5.98
2018-11-03T00:40:59.889Z,6.00
2018-11-03T00:41:59.870Z,6.06
2018-11-03T00:42:59.844Z,6.16
2018-11-03T00:43:59.840Z,6.15
2018-11-03T00:44:59.804Z,6.16
2018-11-03T00:45:59.783Z,6.21
2018-11-03T00:46:59.793Z,6.25
2018-11-03T00:47:59.739Z,6.28
2018-11-03T00:48:59.721Z,6.31
2018-11-03T00:49:59.702Z,6.21
2018-11-03T00:50:59.688Z,6.28
2018-11-03T00:51:59.672Z,6.32
2018-11-03T00:52:59.652Z,6.34
2018-11-03T00:53:59.635Z,6.35
2018-11-03T00:54:59.599Z,6.31
2018-11-03T00:55:59.573Z,6.32
2018-11-03T00:56:59.559Z,6.16
2018-11-03T00:57:59.550Z,5.98
2018-11-03T00:58:59.515Z,5.79
2018-11-03T00:59:59.499Z,5.70
2018-11-03T01:00:59.474Z,5.80
2018-11-03T01:01:59.453Z,5.85
2018-11-03T01:02:59.439Z,5.87
2018-11-03T01:03:59.409Z,5.84
2018-11-03T01:04:59.388Z,5.95
2018-11-03T01:05:59.372Z,5.76
2018-11-03T01:06:59.351Z,5.62
2018-11-03T01:07:59.326Z,5.61
2018-11-03T01:08:59.306Z,5.62
2018-11-03T01:09:59.288Z,5.67
2018-11-03T01:10:59.269Z,5.70
2018-11-03T01:11:59.238Z,5.67
2018-11-03T01:12:59.232Z,5.75
2018-11-03T01:13:59.199Z,5.80
2018-11-03T01:14:59.184Z,5.84
2018-11-03T01:15:59.157Z,5.80
2018-11-03T01:16:59.142Z,5.90
2018-11-03T01:17:59.115Z,5.77
2018-11-03T01:18:59.101Z,5.73
2018-11-03T01:19:59.072Z,5.73
2018-11-03T01:20:59.063Z,5.79
2018-11-03T01:21:59.030Z,5.79
2018-11-03T01:22:59.007Z,5.80
2018-11-03T01:23:58.992Z,5.84
2018-11-03T01:24:58.966Z,5.93
2018-11-03T01:25:58.949Z,5.93
2018-11-03T01:26:58.944Z,5.88
2018-11-03T01:27:58.904Z,5.87
2018-11-03T01:28:58.884Z,5.95
2018-11-03T01:29:58.862Z,5.91
2018-11-03T01:30:58.839Z,5.88
2018-11-03T01:31:58.817Z,5.85
2018-11-03T01:32:58.796Z,5.77
2018-11-03T01:33:58.785Z,5.72
2018-11-03T01:34:58.755Z,5.57
2018-11-03T01:35:58.732Z,5.59
2018-11-03T01:36:58.714Z,5.57
2018-11-03T01:37:58.693Z,5.39
2018-11-03T01:38:58.675Z,5.44
2018-11-03T01:39:58.649Z,5.43
2018-11-03T01:40:58.635Z,5.44
2018-11-03T01:41:58.608Z,5.44
2018-11-03T01:42:58.586Z,5.51
2018-11-03T01:43:58.563Z,5.48
2018-11-03T01:44:58.544Z,5.61
2018-11-03T01:45:58.522Z,5.48
2018-11-03T01:46:58.498Z,5.58
2018-11-03T01:47:58.479Z,5.66
2018-11-03T01:48:58.459Z,5.65
2018-11-03T01:49:58.441Z,5.59
2018-11-03T01:50:58.416Z,5.52
2018-11-03T01:51:58.395Z,5.59
2018-11-03T01:52:58.377Z,5.47
2018-11-03T01:53:58.352Z,5.57
2018-11-03T01:54:58.330Z,5.37
2018-11-03T01:55:58.312Z,5.36
2018-11-03T01:56:58.305Z,5.44
2018-11-03T01:57:58.266Z,5.50
2018-11-03T01:58:58.247Z,5.50
2018-11-03T01:59:58.224Z,5.44
2018-11-03T02:00:58.203Z,5.58
2018-11-03T02:01:58.211Z,5.57
2018-11-03T02:02:58.162Z,5.61
2018-11-03T02:03:58.143Z,5.55
2018-11-03T02:04:58.125Z,5.52
2018-11-03T02:05:58.101Z,5.59
2018-11-03T02:06:58.077Z,5.58
2018-11-03T02:07:58.054Z,5.54
2018-11-03T02:08:58.062Z,5.48
2018-11-03T02:09:58.012Z,5.57
2018-11-03T02:10:57.999Z,5.58
2018-11-03T02:11:57.969Z,5.61
2018-11-03T02:12:57.949Z,5.70
2018-11-03T02:13:57.930Z,5.66
2018-11-03T02:14:57.915Z,5.67
2018-11-03T02:15:57.891Z,5.73
2018-11-03T02:16:57.863Z,5.73
2018-11-03T02:17:57.855Z,5.66
2018-11-03T02:18:57.830Z,5.76
2018-11-03T02:19:57.798Z,5.75
2018-11-03T02:20:57.777Z,5.80
2018-11-03T02:21:57.756Z,5.72
2018-11-03T02:22:57.735Z,5.77
2018-11-03T02:23:57.725Z,5.72
2018-11-03T02:24:57.691Z,5.87
2018-11-03T02:25:57.670Z,5.80
2018-11-03T02:26:57.651Z,5.88
2018-11-03T02:27:57.637Z,5.73
2018-11-03T02:28:57.607Z,5.73
2018-11-03T02:29:57.586Z,5.58
2018-11-03T02:30:57.566Z,5.59
2018-11-03T02:31:57.546Z,5.61
2018-11-03T02:32:57.519Z,5.62
2018-11-03T02:33:57.501Z,5.52
2018-11-03T02:34:57.477Z,5.59
2018-11-03T02:35:57.459Z,5.57
2018-11-03T02:36:57.438Z,5.57
2018-11-03T02:37:57.415Z,5.66
2018-11-03T02:38:57.397Z,5.61
2018-11-03T02:39:57.374Z,5.58
2018-11-03T02:40:57.352Z,5.62
2018-11-03T02:41:57.335Z,5.59
2018-11-03T02:42:57.308Z,5.54
2018-11-03T02:43:57.298Z,5.34
2018-11-03T02:44:57.266Z,5.30
2018-11-03T02:45:57.245Z,5.24
2018-11-03T02:46:57.226Z,5.12
2018-11-03T02:47:57.201Z,5.04
2018-11-03T02:48:57.180Z,5.00
2018-11-03T02:49:57.160Z,4.97
2018-11-03T02:50:57.149Z,4.78
2018-11-03T02:51:57.123Z,4.75
2018-11-03T02:52:57.098Z,4.69
2018-11-03T02:53:57.092Z,4.72
2018-11-03T02:54:57.058Z,4.78
2018-11-03T02:55:57.031Z,4.85
2018-11-03T02:56:57.007Z,4.97
2018-11-03T02:57:56.989Z,4.98
2018-11-03T02:58:56.962Z,4.98
2018-11-03T02:59:56.947Z,5.12
2018-11-03T03:00:56.924Z,5.18
2018-11-03T03:01:56.902Z,5.14
2018-11-03T03:02:56.877Z,5.19
2018-11-03T03:03:56.860Z,5.18
2018-11-03T03:04:56.834Z,5.30
2018-11-03T03:05:56.816Z,5.34
2018-11-03T03:06:56.812Z,5.27
2018-11-03T03:07:56.770Z,5.24
2018-11-03T03:08:56.752Z,5.30
2018-11-03T03:09:56.731Z,5.30
2018-11-03T03:10:56.706Z,5.27
2018-11-03T03:11:56.693Z,5.21
2018-11-03T03:12:56.662Z,5.24
2018-11-03T03:13:56.642Z,5.21
2018-11-03T03:14:56.621Z,5.27
2018-11-03T03:15:56.599Z,5.18
2018-11-03T03:16:56.576Z,5.11
2018-11-03T03:17:56.555Z,5.11
2018-11-03T03:18:56.534Z,5.09
2018-11-03T03:19:56.509Z,5.11
2018-11-03T03:20:56.496Z,5.06
2018-11-03T03:21:56.468Z,5.07
2018-11-03T03:22:56.447Z,5.04
2018-11-03T03:23:56.424Z,4.93
2018-11-03T03:24:56.403Z,4.89
2018-11-03T03:25:56.380Z,4.86
2018-11-03T03:26:56.358Z,4.82
2018-11-03T03:27:56.343Z,4.85
2018-11-03T03:28:56.334Z,4.75
2018-11-03T03:29:56.295Z,4.82
2018-11-03T03:30:56.272Z,4.78
2018-11-03T03:31:56.249Z,4.67
2018-11-03T03:32:56.230Z,4.75
2018-11-03T03:33:56.216Z,4.77
2018-11-03T03:34:56.184Z,4.69
2018-11-03T03:35:56.163Z,4.77
2018-11-03T03:36:56.148Z,4.82
2018-11-03T03:37:56.128Z,4.66
2018-11-03T03:38:56.102Z,4.83
2018-11-03T03:39:56.079Z,4.78
2018-11-03T03:40:56.058Z,4.93
2018-11-03T03:41:56.036Z,4.94
2018-11-03T03:42:56.011Z,4.91
2018-11-03T03:43:55.991Z,4.86
2018-11-03T03:44:55.969Z,4.78
2018-11-03T03:45:55.953Z,4.77
2018-11-03T03:46:55.923Z,4.61
2018-11-03T03:47:55.906Z,4.78
2018-11-03T03:48:55.882Z,4.71
2018-11-03T03:49:55.865Z,4.75
2018-11-03T03:50:55.843Z,4.82
2018-11-03T03:51:55.853Z,4.83
2018-11-03T03:52:55.797Z,4.86
2018-11-03T03:53:55.800Z,4.63
2018-11-03T03:54:55.754Z,4.67
2018-11-03T03:55:55.731Z,4.66
2018-11-03T03:56:55.709Z,4.74
2018-11-03T03:57:55.689Z,4.64
2018-11-03T03:58:55.665Z,4.69
2018-11-03T03:59:55.643Z,4.79
2018-11-03T04:00:55.622Z,4.67
2018-11-03T04:01:55.601Z,4.75
2018-11-03T04:02:55.603Z,4.64
2018-11-03T04:03:55.556Z,4.61
2018-11-03T04:04:55.533Z,4.56
2018-11-03T04:05:55.512Z,4.69
2018-11-03T04:06:55.499Z,4.66
2018-11-03T04:07:55.469Z,4.72
2018-11-03T04:08:55.451Z,4.61
2018-11-03T04:09:55.425Z,4.74
2018-11-03T04:10:55.409Z,4.71
2018-11-03T04:11:55.384Z,4.79
2018-11-03T04:12:55.360Z,4.69
2018-11-03T04:13:55.347Z,4.75
2018-11-03T04:14:55.316Z,4.77
2018-11-03T04:15:55.315Z,4.67
2018-11-03T04:16:55.276Z,4.78
2018-11-03T04:17:55.250Z,4.79
2018-11-03T04:18:55.228Z,4.82
2018-11-03T04:19:55.207Z,4.69
2018-11-03T04:20:55.183Z,4.78
2018-11-03T04:21:55.163Z,4.79
2018-11-03T04:22:55.142Z,4.67
2018-11-03T04:23:55.122Z,4.67
2018-11-03T04:24:55.097Z,4.66
2018-11-03T04:25:55.079Z,4.74
2018-11-03T04:26:55.055Z,4.61
2018-11-03T04:27:55.032Z,4.75
2018-11-03T04:28:55.011Z,4.74
2018-11-03T04:29:54.993Z,4.78
2018-11-03T04:30:54.966Z,4.79
2018-11-03T04:31:54.997Z,4.78
2018-11-03T04:32:54.921Z,4.88
2018-11-03T04:33:54.904Z,4.85
2018-11-03T04:34:54.881Z,4.98
2018-11-03T04:35:54.861Z,4.86
2018-11-03T04:36:54.837Z,4.96
2018-11-03T04:37:54.814Z,4.88
2018-11-03T04:38:54.793Z,4.91
2018-11-03T04:39:54.771Z,4.91
2018-11-03T04:40:54.749Z,4.93
2018-11-03T04:41:54.728Z,4.94
2018-11-03T04:42:54.705Z,4.77
2018-11-03T04:43:54.685Z,4.67
2018-11-03T04:44:54.665Z,4.75
2018-11-03T04:45:54.698Z,4.75
2018-11-03T04:46:54.618Z,4.72
2018-11-03T04:47:54.598Z,4.61
2018-11-03T04:48:54.577Z,4.56
2018-11-03T04:49:54.553Z,4.57
2018-11-03T04:50:54.532Z,4.61
2018-11-03T04:51:54.515Z,4.60
2018-11-03T04:52:54.498Z,4.67
2018-11-03T04:53:54.464Z,4.67
2018-11-03T04:54:54.498Z,4.72
2018-11-03T04:55:54.422Z,4.63
2018-11-03T04:56:54.400Z,4.77
2018-11-03T04:57:54.386Z,4.78
2018-11-03T04:58:54.357Z,4.89
2018-11-03T04:59:54.337Z,4.89
2018-11-03T05:00:54.311Z,4.77
2018-11-03T05:01:54.293Z,4.75
2018-11-03T05:02:54.269Z,4.60
2018-11-03T05:03:54.246Z,4.61
2018-11-03T05:04:54.224Z,4.59
2018-11-03T05:05:54.204Z,4.54
2018-11-03T05:06:54.180Z,4.60
2018-11-03T05:07:54.158Z,4.64
2018-11-03T05:08:54.136Z,4.67
2018-11-03T05:09:54.185Z,4.67
2018-11-03T05:10:54.091Z,4.64
2018-11-03T05:11:54.075Z,4.63
2018-11-03T05:12:54.048Z,4.67
2018-11-03T05:13:54.027Z,4.74
2018-11-03T05:14:54.004Z,4.66
2018-11-03T05:15:53.980Z,4.53
2018-11-03T05:16:53.959Z,4.53
2018-11-03T05:17:53.938Z,4.56
2018-11-03T05:18:53.916Z,4.51
2018-11-03T05:19:53.894Z,4.53
2018-11-03T05:20:53.872Z,4.60
2018-11-03T05:21:53.849Z,4.67
2018-11-03T05:22:53.831Z,4.66
2018-11-03T05:23:53.809Z,4.66
2018-11-03T05:24:53.786Z,4.67
2018-11-03T05:25:53.765Z,4.64
2018-11-03T05:26:53.744Z,4.71
2018-11-03T05:27:53.718Z,4.78
2018-11-03T05:28:53.697Z,4.61
2018-11-03T05:29:53.676Z,4.48
2018-11-03T05:30:53.687Z,4.41
2018-11-03T05:31:53.635Z,4.39
2018-11-03T05:32:53.611Z,4.45
2018-11-03T05:33:53.588Z,4.46
2018-11-03T05:34:53.564Z,4.57
2018-11-03T05:35:53.544Z,4.59
2018-11-03T05:36:53.523Z,4.60
2018-11-03T05:37:53.502Z,4.57
2018-11-03T05:38:53.510Z,4.61
2018-11-03T05:39:53.454Z,4.66
2018-11-03T05:40:53.433Z,4.63
2018-11-03T05:41:53.411Z,4.67
2018-11-03T05:42:53.389Z,4.78
2018-11-03T05:43:53.367Z,4.74
2018-11-03T05:44:53.363Z,4.67
2018-11-03T05:45:53.326Z,4.71
2018-11-03T05:46:53.302Z,4.67
2018-11-03T05:47:53.291Z,4.72
2018-11-03T05:48:53.260Z,4.63
2018-11-03T05:49:53.248Z,4.51
2018-11-03T05:50:53.212Z,4.43
2018-11-03T05:51:53.192Z,4.51
2018-11-03T05:52:53.169Z,4.46
2018-11-03T05:53:53.147Z,4.51
2018-11-03T05:54:53.126Z,4.43
2018-11-03T05:55:53.106Z,4.48
2018-11-03T05:56:53.083Z,4.31
2018-11-03T05:57:53.067Z,4.34
2018-11-03T05:58:53.203Z,4.31
2018-11-03T05:59:53.014Z,4.20
2018-11-03T06:00:53.010Z,4.21
2018-11-03T06:01:52.975Z,4.17
2018-11-03T06:02:52.951Z,4.09
2018-11-03T06:03:52.927Z,3.92
2018-11-03T06:04:52.914Z,3.90
2018-11-03T06:05:52.885Z,3.85
2018-11-03T06:06:52.863Z,3.74
2018-11-03T06:07:52.837Z,3.69
2018-11-03T06:08:52.898Z,3.51
2018-11-03T06:09:52.798Z,3.44
2018-11-03T06:10:52.779Z,3.33
2018-11-03T06:11:52.750Z,3.35
2018-11-03T06:12:52.727Z,3.37
2018-11-03T06:13:52.711Z,3.25
2018-11-03T06:14:52.684Z,3.18
2018-11-03T06:15:52.667Z,3.09
2018-11-03T06:16:52.637Z,3.23
2018-11-03T06:17:52.614Z,3.35
2018-11-03T06:18:52.592Z,3.30
2018-11-03T06:19:52.567Z,3.37
2018-11-03T06:20:52.551Z,3.29
2018-11-03T06:21:52.549Z,3.25
2018-11-03T06:22:52.534Z,3.32
2018-11-03T06:23:52.480Z,3.25
2018-11-03T06:24:52.458Z,3.30
2018-11-03T06:25:52.439Z,3.42
2018-11-03T06:26:52.420Z,3.49
2018-11-03T06:27:52.430Z,3.63
2018-11-03T06:28:52.370Z,3.67
2018-11-03T06:29:52.347Z,3.73
2018-11-03T06:30:52.325Z,3.85
2018-11-03T06:31:52.301Z,3.96
2018-11-03T06:32:52.310Z,4.00
2018-11-03T06:33:52.255Z,3.87
2018-11-03T06:34:52.233Z,3.98
2018-11-03T06:35:52.213Z,4.06
2018-11-03T06:36:52.190Z,4.09
2018-11-03T06:37:52.165Z,4.10
2018-11-03T06:38:52.211Z,4.28
2018-11-03T06:39:52.120Z,4.28
2018-11-03T06:40:52.135Z,4.30
2018-11-03T06:41:52.107Z,4.31
2018-11-03T06:42:52.052Z,4.12
2018-11-03T06:43:52.034Z,4.21
2018-11-03T06:44:52.011Z,4.12
2018-11-03T06:45:51.994Z,4.17
2018-11-03T06:46:51.964Z,4.12
2018-11-03T06:47:51.946Z,4.16
2018-11-03T06:48:51.924Z,4.10
2018-11-03T06:49:51.898Z,4.20
2018-11-03T06:50:51.895Z,4.27
2018-11-03T06:51:51.853Z,4.34
2018-11-03T06:52:51.830Z,4.39
2018-11-03T06:53:51.816Z,4.42
2018-11-03T06:54:51.796Z,4.49
2018-11-03T06:55:51.765Z,4.63
2018-11-03T06:56:51.755Z,4.66
2018-11-03T06:57:51.736Z,4.71
2018-11-03T06:58:51.699Z,4.77
2018-11-03T06:59:51.681Z,4.78
2018-11-03T07:00:51.660Z,4.83
2018-11-03T07:01:51.634Z,4.78
2018-11-03T07:02:51.611Z,4.85
2018-11-03T07:03:51.589Z,4.98
2018-11-03T07:04:51.608Z,5.00
2018-11-03T07:05:51.548Z,5.12
2018-11-03T07:06:51.531Z,5.14
2018-11-03T07:07:51.507Z,5.22
2018-11-03T07:08:51.490Z,5.29
2018-11-03T07:09:51.464Z,5.18
2018-11-03T07:10:51.438Z,5.12
2018-11-03T07:11:51.503Z,5.19
2018-11-03T07:12:51.543Z,5.21
2018-11-03T07:13:51.375Z,5.15
2018-11-03T07:14:51.354Z,5.27
2018-11-03T07:15:51.334Z,5.50
2018-11-03T07:16:51.321Z,5.43
2018-11-03T07:17:51.319Z,5.48
2018-11-03T07:18:51.351Z,5.69
2018-11-03T07:19:51.259Z,5.69
2018-11-03T07:20:51.228Z,5.79
2018-11-03T07:21:51.393Z,6.21
2018-11-03T07:22:51.188Z,6.91
2018-11-03T07:23:51.194Z,7.54
2018-11-03T07:24:51.168Z,8.14
2018-11-03T07:25:51.146Z,8.60
2018-11-03T07:26:51.102Z,9.27
2018-11-03T07:27:51.087Z,9.96
2018-11-03T07:28:51.077Z,10.75
2018-11-03T07:29:51.112Z,10.93
2018-11-03T07:30:51.039Z,10.46
2018-11-03T07:31:51.017Z,10.48
2018-11-03T07:32:51.014Z,10.83
2018-11-03T07:33:50.985Z,11.08
2018-11-03T07:34:50.969Z,11.18
2018-11-03T07:35:50.961Z,10.94
2018-11-03T07:36:50.941Z,10.46
2018-11-03T07:37:50.918Z,10.24
2018-11-03T07:38:50.905Z,10.08
2018-11-03T07:39:50.897Z,9.54
2018-11-03T07:40:50.945Z,9.11
2018-11-03T07:41:50.856Z,8.83
2018-11-03T07:42:50.949Z,8.77
2018-11-03T07:43:50.824Z,8.52
2018-11-03T07:44:50.806Z,8.23
2018-11-03T07:45:50.790Z,7.86
2018-11-03T07:46:50.776Z,7.73
2018-11-03T07:47:50.827Z,7.81
2018-11-03T07:48:50.916Z,7.76
2018-11-03T07:49:50.725Z,7.58
2018-11-03T07:50:50.715Z,7.69
2018-11-03T07:51:50.710Z,7.54
2018-11-03T07:52:50.678Z,7.44
2018-11-03T07:53:50.657Z,7.55
2018-11-03T07:54:50.884Z,7.77
2018-11-03T07:55:50.619Z,7.80
2018-11-03T07:56:50.606Z,7.94
2018-11-03T07:57:50.586Z,8.09
2018-11-03T07:58:50.571Z,8.06
2018-11-03T07:59:50.554Z,8.09
2018-11-03T08:00:50.541Z,7.99
2018-11-03T08:01:50.520Z,7.94
2018-11-03T08:02:50.524Z,7.95
2018-11-03T08:03:50.481Z,8.12
2018-11-03T08:04:50.458Z,8.29
2018-11-03T08:05:50.450Z,8.59
2018-11-03T08:06:50.424Z,8.70
2018-11-03T08:07:50.409Z,8.78
2018-11-03T08:08:50.596Z,8.57
2018-11-03T08:09:50.375Z,8.23
2018-11-03T08:10:50.356Z,8.04
2018-11-03T08:11:50.337Z,7.96
2018-11-03T08:12:50.319Z,7.69
2018-11-03T08:13:50.302Z,7.55
2018-11-03T08:14:50.282Z,7.60
2018-11-03T08:15:50.340Z,7.60
2018-11-03T08:16:50.252Z,7.69
2018-11-03T08:17:50.237Z,7.46
2018-11-03T08:18:50.208Z,7.34
2018-11-03T08:19:50.190Z,7.24
2018-11-03T08:20:50.181Z,7.15
2018-11-03T08:21:50.155Z,7.11
2018-11-03T08:22:50.145Z,7.43
2018-11-03T08:23:50.197Z,7.57
2018-11-03T08:24:50.100Z,7.62
2018-11-03T08:25:50.085Z,7.80
2018-11-03T08:26:50.063Z,7.96
2018-11-03T08:27:50.078Z,7.98
2018-11-03T08:28:50.027Z,8.02
2018-11-03T08:29:50.014Z,8.05
2018-11-03T08:30:49.991Z,7.94
2018-11-03T08:31:49.972Z,8.09
2018-11-03T08:32:49.954Z,8.32
2018-11-03T08:33:49.939Z,8.46
2018-11-03T08:34:49.914Z,8.14
2018-11-03T08:35:49.905Z,8.29
2018-11-03T08:36:49.879Z,8.05
2018-11-03T08:37:49.892Z,7.84
2018-11-03T08:38:49.841Z,8.04
2018-11-03T08:39:49.844Z,8.29
2018-11-03T08:40:49.810Z,8.57
2018-11-03T08:41:49.790Z,9.12
2018-11-03T08:42:49.775Z,9.78
2018-11-03T08:43:49.766Z,9.33
2018-11-03T08:44:49.740Z,8.96
2018-11-03T08:45:49.728Z,8.99
2018-11-03T08:46:49.704Z,9.60
2018-11-03T08:47:49.691Z,10.27
2018-11-03T08:48:49.753Z,10.73
2018-11-03T08:49:49.661Z,10.57
2018-11-03T08:50:49.641Z,10.46
2018-11-03T08:51:49.635Z,10.39
2018-11-03T08:52:49.652Z,10.30
2018-11-03T08:53:49.597Z,10.24
2018-11-03T08:54:49.582Z,10.49
2018-11-03T08:55:49.569Z,10.87
2018-11-03T08:56:49.556Z,11.00
2018-11-03T08:57:49.539Z,11.37
2018-11-03T08:58:49.529Z,11.70
2018-11-03T08:59:49.679Z,12.03
2018-11-03T09:00:49.499Z,11.67
2018-11-03T09:01:49.483Z,11.70
2018-11-03T09:02:49.467Z,11.64
2018-11-03T09:03:49.454Z,11.89
2018-11-03T09:04:49.441Z,12.17
2018-11-03T09:05:49.425Z,12.29
2018-11-03T09:06:49.435Z,12.54
2018-11-03T09:07:49.405Z,13.05
2018-11-03T09:08:49.387Z,12.93
2018-11-03T09:09:49.371Z,13.13
2018-11-03T09:10:49.360Z,13.08
2018-11-03T09:11:49.349Z,13.61
2018-11-03T09:12:49.333Z,13.75
2018-11-03T09:13:49.321Z,13.82
2018-11-03T09:14:49.368Z,13.86
2018-11-03T09:15:49.298Z,13.86
2018-11-03T09:16:49.287Z,14.00
2018-11-03T09:17:49.278Z,14.28
2018-11-03T09:18:49.298Z,14.58
2018-11-03T09:19:49.255Z,15.07
2018-11-03T09:20:49.239Z,15.36
2018-11-03T09:21:49.273Z,15.63
2018-11-03T09:22:49.420Z,16.24
2018-11-03T09:23:49.210Z,16.29
2018-11-03T09:24:49.200Z,16.08
2018-11-03T09:25:49.204Z,15.70
2018-11-03T09:26:49.179Z,15.59
2018-11-03T09:27:49.167Z,15.11
2018-11-03T09:28:49.159Z,15.25
2018-11-03T09:29:49.148Z,15.60
2018-11-03T09:30:49.137Z,14.69
2018-11-03T09:31:49.151Z,13.42
2018-11-03T09:32:49.118Z,13.13
2018-11-03T09:33:49.109Z,12.72
2018-11-03T09:34:49.178Z,12.61
2018-11-03T09:35:49.090Z,12.80
2018-11-03T09:36:49.085Z,12.35
2018-11-03T09:37:49.066Z,12.17
2018-11-03T09:38:49.217Z,11.89
2018-11-03T09:39:49.044Z,12.11
2018-11-03T09:40:49.033Z,11.87
2018-11-03T09:41:49.023Z,11.41
2018-11-03T09:42:49.019Z,11.55
2018-11-03T09:43:49.000Z,11.74
2018-11-03T09:44:49.011Z,11.95
2018-11-03T09:45:48.978Z,11.96
2018-11-03T09:46:48.967Z,12.48
2018-11-03T09:47:48.956Z,12.87
2018-11-03T09:48:48.942Z,13.01
2018-11-03T09:49:48.932Z,12.51
2018-11-03T09:50:48.982Z,11.71
2018-11-03T09:51:48.914Z,10.75
2018-11-03T09:52:48.931Z,10.23
2018-11-03T09:53:48.886Z,10.27
2018-11-03T09:54:48.870Z,10.36
2018-11-03T09:55:48.863Z,10.79
2018-11-03T09:56:48.947Z,11.22
2018-11-03T09:57:48.849Z,11.34
2018-11-03T09:58:48.847Z,11.31
2018-11-03T09:59:48.806Z,11.49
2018-11-03T10:00:48.791Z,11.23
2018-11-03T10:01:48.781Z,11.11
2018-11-03T10:02:48.771Z,11.08
2018-11-03T10:03:48.783Z,10.94
2018-11-03T10:04:48.740Z,11.67
2018-11-03T10:05:48.730Z,12.15
2018-11-03T10:06:48.716Z,12.71
2018-11-03T10:07:48.702Z,13.24
2018-11-03T10:08:48.693Z,13.53
2018-11-03T10:09:48.680Z,13.46
2018-11-03T10:10:48.668Z,13.46
2018-11-03T10:11:48.650Z,13.51
2018-11-03T10:12:48.642Z,13.42
2018-11-03T10:13:48.625Z,13.75
2018-11-03T10:14:48.623Z,13.83
2018-11-03T10:15:48.661Z,13.46
2018-11-03T10:16:48.589Z,12.96
2018-11-03T10:17:48.586Z,12.86
2018-11-03T10:18:48.563Z,12.80
2018-11-03T10:19:48.554Z,12.79
2018-11-03T10:20:48.546Z,12.88
2018-11-03T10:21:48.525Z,11.93
2018-11-03T10:22:48.563Z,11.95
2018-11-03T10:23:48.500Z,12.11
2018-11-03T10:24:48.487Z,11.46
2018-11-03T10:25:48.473Z,11.23
2018-11-03T10:26:48.501Z,11.79
2018-11-03T10:27:48.466Z,12.44
2018-11-03T10:28:48.436Z,12.61
2018-11-03T10:29:48.435Z,12.55
2018-11-03T10:30:48.409Z,12.51
2018-11-03T10:31:48.395Z,12.18
2018-11-03T10:32:48.385Z,12.44
2018-11-03T10:33:48.403Z,12.90
2018-11-03T10:34:48.356Z,13.64
2018-11-03T10:35:48.346Z,14.13
2018-11-03T10:36:48.371Z,14.64
2018-11-03T10:37:48.320Z,14.37
2018-11-03T10:38:48.307Z,14.59
2018-11-03T10:39:48.298Z,14.96
2018-11-03T10:40:48.280Z,14.51
2018-11-03T10:41:48.275Z,13.78
2018-11-03T10:42:48.256Z,13.97
2018-11-03T10:43:48.244Z,13.91
2018-11-03T10:44:48.236Z,13.88
2018-11-03T10:45:48.223Z,14.19
2018-11-03T10:46:48.208Z,14.36
2018-11-03T10:47:48.199Z,14.37
2018-11-03T10:48:48.183Z,14.09
2018-11-03T10:49:48.176Z,13.65
2018-11-03T10:50:48.163Z,13.05
2018-11-03T10:51:48.151Z,13.45
2018-11-03T10:52:48.135Z,13.78
2018-11-03T10:53:48.262Z,13.83
2018-11-03T10:54:48.115Z,13.58
2018-11-03T10:55:48.114Z,13.17
2018-11-03T10:56:48.088Z,12.81
2018-11-03T10:57:48.074Z,12.55
2018-11-03T10:58:48.061Z,12.96
2018-11-03T10:59:48.059Z,13.30
2018-11-03T11:00:48.036Z,13.40
2018-11-03T11:01:48.028Z,13.57
2018-11-03T11:02:48.015Z,14.01
2018-11-03T11:03:48.008Z,14.37
2018-11-03T11:04:47.989Z,14.52
2018-11-03T11:05:47.973Z,14.83
2018-11-03T11:06:47.974Z,15.14
2018-11-03T11:07:47.958Z,15.23
2018-11-03T11:08:47.937Z,14.40
2018-11-03T11:09:47.925Z,14.30
2018-11-03T11:10:47.938Z,14.46
2018-11-03T11:11:47.901Z,14.67
2018-11-03T11:12:47.920Z,14.71
2018-11-03T11:13:47.882Z,14.79
2018-11-03T11:14:47.875Z,15.01
2018-11-03T11:15:47.931Z,15.14
2018-11-03T11:16:47.925Z,14.97
2018-11-03T11:17:47.840Z,15.03
2018-11-03T11:18:47.818Z,15.07
2018-11-03T11:19:47.804Z,15.23
2018-11-03T11:20:47.807Z,15.25
2018-11-03T11:21:47.780Z,14.82
2018-11-03T11:22:47.773Z,14.97
2018-11-03T11:23:47.811Z,15.04
2018-11-03T11:24:47.777Z,15.04
2018-11-03T11:25:47.731Z,15.07
2018-11-03T11:26:47.721Z,15.10
2018-11-03T11:27:47.710Z,14.83
2018-11-03T11:28:47.699Z,14.93
2018-11-03T11:29:47.688Z,15.12
2018-11-03T11:30:47.688Z,15.26
2018-11-03T11:31:47.667Z,15.26
2018-11-03T11:32:47.700Z,15.04
2018-11-03T11:33:47.679Z,15.05
2018-11-03T11:34:47.631Z,14.73
2018-11-03T11:35:47.615Z,14.83
2018-11-03T11:36:47.605Z,14.99
2018-11-03T11:37:47.605Z,15.22
2018-11-03T11:38:47.581Z,15.32
2018-11-03T11:39:47.568Z,15.52
2018-11-03T11:40:47.554Z,15.66
2018-11-03T11:41:47.546Z,15.83
2018-11-03T11:42:47.578Z,15.93
2018-11-03T11:43:47.519Z,16.02
2018-11-03T11:44:47.513Z,15.98
2018-11-03T11:45:47.500Z,15.83
2018-11-03T11:46:47.485Z,15.76
2018-11-03T11:47:47.475Z,15.60
2018-11-03T11:48:47.463Z,14.51
2018-11-03T11:49:47.454Z,13.76
2018-11-03T11:50:47.437Z,13.68
2018-11-03T11:51:47.428Z,13.94
2018-11-03T11:52:47.445Z,14.30
2018-11-03T11:53:47.423Z,14.56
2018-11-03T11:54:47.398Z,14.71
2018-11-03T11:55:47.381Z,14.67
2018-11-03T11:56:47.366Z,14.67
2018-11-03T11:57:47.357Z,14.74
2018-11-03T11:58:47.348Z,14.97
2018-11-03T11:59:47.331Z,15.19
2018-11-03T12:00:47.422Z,15.35
2018-11-03T12:01:47.329Z,15.59
2018-11-03T12:02:47.293Z,15.65
2018-11-03T12:03:47.282Z,15.76
2018-11-03T12:04:47.269Z,15.38
2018-11-03T12:05:47.259Z,15.44
2018-11-03T12:06:47.263Z,15.03
2018-11-03T12:07:47.235Z,14.87
2018-11-03T12:08:47.222Z,14.56
2018-11-03T12:09:47.268Z,14.49
2018-11-03T12:10:47.209Z,14.87
2018-11-03T12:11:47.187Z,15.26
2018-11-03T12:12:47.179Z,15.43
2018-11-03T12:13:47.162Z,15.04
2018-11-03T12:14:47.263Z,14.21
2018-11-03T12:15:47.139Z,13.96
2018-11-03T12:16:47.129Z,14.12
2018-11-03T12:17:47.115Z,14.36
2018-11-03T12:18:47.105Z,14.38
2018-11-03T12:19:47.093Z,14.64
2018-11-03T12:20:47.093Z,14.99
2018-11-03T12:21:47.069Z,15.22
2018-11-03T12:22:47.058Z,15.59
2018-11-03T12:23:47.081Z,15.77
2018-11-03T12:24:47.068Z,15.95
2018-11-03T12:25:47.165Z,15.87
2018-11-03T12:26:47.011Z,15.96
2018-11-03T12:27:47.013Z,15.26
2018-11-03T12:28:46.988Z,15.22
2018-11-03T12:29:46.975Z,14.96
2018-11-03T12:30:46.967Z,15.22
2018-11-03T12:31:46.950Z,15.44
2018-11-03T12:32:46.949Z,15.63
2018-11-03T12:33:46.928Z,15.95
2018-11-03T12:34:46.930Z,16.08
2018-11-03T12:35:46.937Z,15.88
2018-11-03T12:36:46.892Z,16.09
2018-11-03T12:37:46.881Z,15.88
2018-11-03T12:38:46.875Z,15.95
2018-11-03T12:39:46.861Z,15.95
2018-11-03T12:40:46.892Z,15.95
2018-11-03T12:41:46.837Z,16.14
2018-11-03T12:42:46.824Z,16.32
2018-11-03T12:43:46.823Z,15.96
2018-11-03T12:44:46.798Z,15.90
2018-11-03T12:45:46.788Z,16.06
2018-11-03T12:46:46.817Z,15.91
2018-11-03T12:47:46.775Z,15.54
2018-11-03T12:48:46.764Z,15.10
2018-11-03T12:49:46.764Z,14.93
2018-11-03T12:50:46.728Z,15.03
2018-11-03T12:51:46.715Z,14.95
2018-11-03T12:52:46.703Z,14.99
2018-11-03T12:53:46.712Z,14.93
2018-11-03T12:54:46.689Z,15.11
2018-11-03T12:55:46.665Z,15.10
2018-11-03T12:56:46.655Z,14.44
2018-11-03T12:57:46.650Z,14.49
2018-11-03T12:58:46.641Z,14.58
2018-11-03T12:59:46.642Z,14.82
2018-11-03T13:00:46.617Z,15.08
2018-11-03T13:01:46.605Z,14.86
2018-11-03T13:02:46.580Z,14.87
2018-11-03T13:03:46.566Z,15.04
2018-11-03T13:04:46.583Z,14.86
2018-11-03T13:05:46.566Z,15.30
2018-11-03T13:06:46.531Z,14.96
2018-11-03T13:07:46.519Z,14.74
2018-11-03T13:08:46.511Z,14.77